KGLE/GLE METAR and TAF weather

Enter ICAO airport designator
Station Type Date Time Source
KGLE METAR 2020/07/06 08:35 UTC NOAA

KGLE 060835Z AUTO 04004KT 10SM CLR 25/24 A2988 RMK AO2 T02450235 PWINO


Station Type Date Time Source
KGLE Decoded METAR 2020/07/06 08:35 UTC NOAA

Gainesville, Gainesville Municipal Airport, TX, United States (KGLE) 33-39-05N 097-11-49W
Jul 06, 2020 - 04:35 AM EDT / 2020.07.06 0835 UTC
Wind: from the NE (040 degrees) at 5 MPH (4 KT):0
Visibility: 10 mile(s):0
Sky conditions: clear
Temperature: 76.1 F (24.5 C)
Dew Point: 74.3 F (23.5 C)
Relative Humidity: 94%
Pressure (altimeter): 29.88 in. Hg (1011 hPa)
ob: KGLE 060835Z AUTO 04004KT 10SM CLR 25/24 A2988 RMK AO2 T02450235 PWINO
cycle: 8

Station Type Date Time Source
KGLE TAF UTC NOAA

Error!

Example: see airport list